Time;durP1;ratioP1;P1;durP2;ratioP2;P2;SDS_P1;SDS_P2;PMS_P1;PMS_P2;Temp;Humidity;BMP_temperature;BMP_pressure;BME280_temperature;BME280_humidity;BME280_pressure;Samples;Min_cycle;Max_cycle;Signal;HPM_P1;HPM_P2
2022/04/10 00:02:27;;;;;;;8.27;3.17;;;;;;;;;;5033923;28;20204;-72
2022/04/10 00:04:56;;;;;;;8.83;2.77;;;;;;;;;;5034169;28;20273;-73
2022/04/10 00:07:26;;;;;;;4.50;2.40;;;;;;;;;;5034135;28;20254;-74
2022/04/10 00:09:54;;;;;;;6.63;2.30;;;;;;;;;;5033971;28;20254;-73
2022/04/10 00:12:22;;;;;;;5.77;2.53;;;;;;;;;;5034257;28;20277;-73
2022/04/10 00:14:51;;;;;;;6.53;2.37;;;;;;;;;;5033708;28;20207;-73
2022/04/10 00:17:19;;;;;;;5.37;2.43;;;;;;;;;;5033386;28;20719;-74
2022/04/10 00:19:48;;;;;;;4.30;2.43;;;;;;;;;;5033436;28;20346;-74
2022/04/10 00:22:16;;;;;;;7.97;2.43;;;;;;;;;;5033980;28;20212;-73
2022/04/10 00:24:46;;;;;;;8.20;2.57;;;;;;;;;;5033827;28;20212;-74
2022/04/10 00:27:14;;;;;;;8.13;2.93;;;;;;;;;;5032813;28;20297;-73
2022/04/10 00:29:43;;;;;;;7.80;2.50;;;;;;;;;;5033971;28;20202;-73
2022/04/10 00:32:11;;;;;;;7.87;2.63;;;;;;;;;;5033627;28;20294;-73
2022/04/10 00:34:40;;;;;;;9.20;2.80;;;;;;;;;;5033056;28;20211;-73
2022/04/10 00:37:08;;;;;;;5.90;2.20;;;;;;;;;;5033440;28;20641;-72
2022/04/10 00:39:37;;;;;;;9.07;2.63;;;;;;;;;;5031849;28;20269;-73
2022/04/10 00:42:07;;;;;;;6.23;2.73;;;;;;;;;;5033375;28;20234;-73
2022/04/10 00:44:35;;;;;;;6.50;2.83;;;;;;;;;;5033535;28;20204;-73
2022/04/10 00:47:05;;;;;;;8.53;2.80;;;;;;;;;;5033201;28;20278;-74
2022/04/10 00:49:33;;;;;;;5.67;2.83;;;;;;;;;;5033409;28;20681;-73
2022/04/10 00:52:02;;;;;;;5.63;2.80;;;;;;;;;;5033548;28;20219;-73
2022/04/10 00:54:31;;;;;;;6.20;2.60;;;;;;;;;;5032296;28;20626;-73
2022/04/10 00:57:00;;;;;;;5.60;2.70;;;;;;;;;;5033409;28;20224;-73
2022/04/10 00:59:30;;;;;;;9.17;2.83;;;;;;;;;;5033303;28;20234;-74
2022/04/10 01:01:59;;;;;;;7.00;2.70;;;;;;;;;;5032271;28;20245;-74
2022/04/10 01:04:43;;;;;;;8.83;2.90;;;;;;;;;;5033075;28;20286;-74
2022/04/10 01:07:13;;;;;;;6.97;2.90;;;;;;;;;;5032646;28;20230;-73
2022/04/10 01:09:42;;;;;;;9.03;3.47;;;;;;;;;;5032037;28;20198;-74
2022/04/10 01:12:13;;;;;;;7.97;2.70;;;;;;;;;;5034221;28;20230;-73
2022/04/10 01:14:43;;;;;;;5.60;2.93;;;;;;;;;;5032871;28;20204;-74
2022/04/10 01:17:12;;;;;;;6.00;2.93;;;;;;;;;;5032793;28;20699;-74
2022/04/10 01:19:41;;;;;;;5.10;2.97;;;;;;;;;;5032043;28;20226;-74
2022/04/10 01:22:10;;;;;;;5.67;2.90;;;;;;;;;;5032292;28;20208;-74
2022/04/10 01:24:41;;;;;;;6.57;2.33;;;;;;;;;;5032541;28;20208;-73
2022/04/10 01:27:09;;;;;;;7.80;2.90;;;;;;;;;;5032444;28;20227;-74
2022/04/10 01:29:37;;;;;;;9.07;3.20;;;;;;;;;;5033083;28;20625;-73
2022/04/10 01:32:06;;;;;;;7.53;2.77;;;;;;;;;;5032959;28;20587;-73
2022/04/10 01:34:35;;;;;;;10.00;2.80;;;;;;;;;;5031870;28;20660;-74
2022/04/10 01:37:05;;;;;;;8.03;2.80;;;;;;;;;;5030421;28;20661;-73
2022/04/10 01:39:34;;;;;;;9.30;3.20;;;;;;;;;;5017007;28;20235;-74
2022/04/10 01:42:04;;;;;;;6.83;2.50;;;;;;;;;;5026291;28;20222;-73
2022/04/10 01:44:40;;;;;;;9.17;2.70;;;;;;;;;;5036545;28;20200;-74
2022/04/10 01:47:09;;;;;;;10.97;2.83;;;;;;;;;;5036862;28;20227;-74
2022/04/10 01:49:37;;;;;;;8.67;3.00;;;;;;;;;;5036498;28;20663;-73
2022/04/10 01:52:06;;;;;;;6.63;2.97;;;;;;;;;;5036261;28;20210;-73
2022/04/10 01:54:34;;;;;;;6.27;2.90;;;;;;;;;;5035346;28;20222;-73
2022/04/10 01:57:04;;;;;;;6.47;2.80;;;;;;;;;;5036309;28;20227;-74
2022/04/10 01:59:33;;;;;;;10.40;4.17;;;;;;;;;;5036330;28;20212;-73
2022/04/10 02:02:01;;;;;;;11.27;2.80;;;;;;;;;;5035598;28;20200;-74
2022/04/10 02:04:30;;;;;;;7.57;2.80;;;;;;;;;;5030170;28;20255;-73
2022/04/10 02:06:58;;;;;;;5.93;3.00;;;;;;;;;;5016536;28;20224;-73
2022/04/10 02:09:27;;;;;;;6.60;2.60;;;;;;;;;;5031022;28;20203;-74
2022/04/10 02:11:55;;;;;;;6.67;2.90;;;;;;;;;;5036979;28;20208;-74
2022/04/10 02:14:25;;;;;;;10.40;2.83;;;;;;;;;;5036142;28;20257;-73
2022/04/10 02:16:53;;;;;;;6.57;2.73;;;;;;;;;;5035760;28;20745;-73
2022/04/10 02:19:22;;;;;;;6.90;2.90;;;;;;;;;;5035737;28;20264;-73
2022/04/10 02:21:50;;;;;;;7.80;3.07;;;;;;;;;;5035901;28;20227;-74
2022/04/10 02:24:18;;;;;;;9.03;2.93;;;;;;;;;;5028218;28;20209;-73
2022/04/10 02:26:47;;;;;;;6.37;3.00;;;;;;;;;;5016113;28;20228;-74
2022/04/10 02:29:18;;;;;;;8.27;2.90;;;;;;;;;;5016294;28;20588;-73
2022/04/10 02:31:48;;;;;;;7.43;2.83;;;;;;;;;;5015949;28;20196;-73
2022/04/10 02:34:16;;;;;;;7.60;2.70;;;;;;;;;;5034957;28;20604;-73
2022/04/10 02:36:45;;;;;;;10.57;3.10;;;;;;;;;;5035115;28;20228;-73
2022/04/10 02:39:13;;;;;;;7.90;2.60;;;;;;;;;;5035070;28;20263;-73
2022/04/10 02:41:41;;;;;;;6.83;2.80;;;;;;;;;;5035839;28;20669;-73
2022/04/10 02:44:10;;;;;;;8.47;3.43;;;;;;;;;;5035444;28;20204;-74
2022/04/10 02:46:38;;;;;;;7.63;2.80;;;;;;;;;;5035358;28;20227;-73
2022/04/10 02:49:08;;;;;;;6.70;2.90;;;;;;;;;;5032551;28;20203;-73
2022/04/10 02:51:36;;;;;;;9.27;2.87;;;;;;;;;;5035563;28;20226;-72
2022/04/10 02:54:05;;;;;;;8.80;3.00;;;;;;;;;;5035314;28;20265;-73
2022/04/10 02:56:33;;;;;;;7.23;3.17;;;;;;;;;;5035217;28;20230;-74
2022/04/10 02:59:02;;;;;;;7.07;3.17;;;;;;;;;;5035649;28;20203;-74
2022/04/10 03:01:30;;;;;;;7.40;3.03;;;;;;;;;;5034557;28;20625;-73
2022/04/10 03:03:59;;;;;;;10.13;3.53;;;;;;;;;;5017948;28;20583;-73
2022/04/10 03:06:28;;;;;;;10.83;2.90;;;;;;;;;;5020029;28;20289;-74
2022/04/10 03:08:57;;;;;;;6.80;2.73;;;;;;;;;;5035159;28;20253;-74
2022/04/10 03:11:25;;;;;;;8.93;3.13;;;;;;;;;;5036027;28;20229;-73
2022/04/10 03:13:53;;;;;;;7.37;2.90;;;;;;;;;;5035369;28;20214;-73
2022/04/10 03:16:22;;;;;;;12.13;3.53;;;;;;;;;;5035133;28;20278;-74
2022/04/10 03:18:51;;;;;;;8.97;3.03;;;;;;;;;;5025041;28;20211;-73
2022/04/10 03:21:19;;;;;;;8.30;2.97;;;;;;;;;;5014998;28;20231;-74
2022/04/10 03:23:49;;;;;;;8.53;2.73;;;;;;;;;;5017924;28;20212;-73
2022/04/10 03:26:18;;;;;;;7.73;2.83;;;;;;;;;;5031963;28;20202;-73
2022/04/10 03:28:46;;;;;;;9.27;2.90;;;;;;;;;;5033684;28;20212;-73
2022/04/10 03:31:14;;;;;;;4.27;2.47;;;;;;;;;;5034525;28;20723;-73
2022/04/10 03:33:43;;;;;;;8.37;2.60;;;;;;;;;;5032790;28;20206;-73
2022/04/10 03:36:12;;;;;;;9.67;2.70;;;;;;;;;;5032535;28;20567;-74
2022/04/10 03:38:40;;;;;;;8.30;2.90;;;;;;;;;;5033876;28;20231;-73
2022/04/10 03:41:10;;;;;;;8.73;2.87;;;;;;;;;;5034476;28;20246;-74
2022/04/10 03:43:38;;;;;;;8.80;2.87;;;;;;;;;;5024468;28;20235;-73
2022/04/10 03:46:07;;;;;;;6.30;2.50;;;;;;;;;;5026269;28;20203;-73
2022/04/10 03:48:35;;;;;;;10.47;2.70;;;;;;;;;;5032647;28;20254;-73
2022/04/10 03:51:04;;;;;;;8.30;2.57;;;;;;;;;;5032751;28;20713;-73
2022/04/10 03:53:32;;;;;;;8.17;3.00;;;;;;;;;;5034097;28;20207;-73
2022/04/10 03:56:00;;;;;;;5.37;2.20;;;;;;;;;;5024702;28;20622;-73
2022/04/10 03:58:30;;;;;;;7.67;2.70;;;;;;;;;;5014608;28;20283;-73
2022/04/10 04:00:59;;;;;;;5.27;2.40;;;;;;;;;;5015179;28;20762;-73
2022/04/10 04:03:27;;;;;;;7.73;2.23;;;;;;;;;;5017575;28;20204;-73
2022/04/10 04:05:55;;;;;;;8.47;2.23;;;;;;;;;;5021809;28;20199;-74
2022/04/10 04:08:24;;;;;;;7.30;2.17;;;;;;;;;;5030127;28;20224;-74
2022/04/10 04:10:52;;;;;;;5.30;2.33;;;;;;;;;;5024740;28;20204;-73
2022/04/10 04:13:21;;;;;;;14.23;3.30;;;;;;;;;;5024259;28;20232;-74
2022/04/10 04:15:52;;;;;;;9.00;3.13;;;;;;;;;;5020328;28;20204;-73
2022/04/10 04:18:20;;;;;;;9.17;3.13;;;;;;;;;;5032566;28;20261;-73
2022/04/10 04:20:49;;;;;;;7.03;2.93;;;;;;;;;;5033593;28;20290;-73
2022/04/10 04:23:20;;;;;;;8.00;2.60;;;;;;;;;;5034143;28;20246;-73
2022/04/10 04:25:48;;;;;;;9.33;3.07;;;;;;;;;;5033024;28;20204;-74
2022/04/10 04:28:16;;;;;;;13.50;3.40;;;;;;;;;;5032202;28;20227;-74
2022/04/10 04:30:47;;;;;;;13.13;3.20;;;;;;;;;;5032992;28;20211;-73
2022/04/10 04:33:17;;;;;;;6.60;2.67;;;;;;;;;;5032676;28;20198;-73
2022/04/10 04:35:45;;;;;;;8.30;2.90;;;;;;;;;;5028984;28;20214;-73
2022/04/10 04:38:14;;;;;;;9.80;2.63;;;;;;;;;;5037024;28;20218;-73
2022/04/10 04:40:42;;;;;;;7.93;2.40;;;;;;;;;;5053412;28;20596;-73
2022/04/10 04:43:10;;;;;;;7.43;2.83;;;;;;;;;;5036404;28;20689;-73
2022/04/10 04:45:39;;;;;;;10.30;2.67;;;;;;;;;;5033696;28;20230;-73
2022/04/10 04:48:07;;;;;;;12.50;3.10;;;;;;;;;;5026434;28;20220;-74
2022/04/10 04:50:37;;;;;;;8.37;2.80;;;;;;;;;;5033156;28;20211;-73
2022/04/10 04:53:05;;;;;;;7.60;2.50;;;;;;;;;;5032181;28;20257;-73
2022/04/10 04:55:34;;;;;;;7.87;3.20;;;;;;;;;;5015966;28;20565;-74
2022/04/10 04:58:02;;;;;;;8.27;2.90;;;;;;;;;;5027677;28;20624;-73
2022/04/10 05:00:31;;;;;;;7.53;2.47;;;;;;;;;;5030283;28;20659;-75
2022/04/10 05:02:59;;;;;;;7.70;2.77;;;;;;;;;;5027856;28;20640;-73
2022/04/10 05:05:28;;;;;;;10.17;3.37;;;;;;;;;;5033235;28;20207;-73
2022/04/10 05:07:57;;;;;;;7.13;3.07;;;;;;;;;;5018136;28;20228;-74
2022/04/10 05:10:26;;;;;;;7.47;2.70;;;;;;;;;;5013345;28;20253;-74
2022/04/10 05:12:54;;;;;;;9.60;2.77;;;;;;;;;;5030071;28;20204;-74
2022/04/10 05:15:23;;;;;;;9.10;2.83;;;;;;;;;;5026947;28;20964;-73
2022/04/10 05:17:51;;;;;;;12.23;2.73;;;;;;;;;;5018617;28;20577;-73
2022/04/10 05:20:20;;;;;;;7.57;2.73;;;;;;;;;;5031206;28;20214;-73
2022/04/10 05:22:48;;;;;;;8.50;3.03;;;;;;;;;;5031968;28;20227;-73
2022/04/10 05:25:18;;;;;;;9.97;3.40;;;;;;;;;;5031951;28;20207;-74
2022/04/10 05:27:47;;;;;;;9.50;3.43;;;;;;;;;;5030234;28;20286;-74
2022/04/10 05:30:15;;;;;;;9.23;3.10;;;;;;;;;;5029079;28;20223;-74
2022/04/10 05:32:44;;;;;;;11.50;3.37;;;;;;;;;;5025396;28;20211;-74
2022/04/10 05:35:13;;;;;;;8.23;3.20;;;;;;;;;;5028716;28;20200;-73
2022/04/10 05:37:42;;;;;;;10.57;3.63;;;;;;;;;;5012706;28;20228;-73
2022/04/10 05:40:11;;;;;;;9.73;3.30;;;;;;;;;;5032156;28;20203;-74
2022/04/10 05:42:44;;;;;;;12.43;3.83;;;;;;;;;;5032481;28;20679;-73
2022/04/10 05:45:12;;;;;;;8.93;3.33;;;;;;;;;;5025711;28;20208;-73
2022/04/10 05:47:41;;;;;;;9.40;3.53;;;;;;;;;;5014849;28;20642;-74
2022/04/10 05:50:10;;;;;;;10.07;3.23;;;;;;;;;;5029942;28;20265;-73
2022/04/10 05:52:39;;;;;;;7.47;3.23;;;;;;;;;;5031990;28;20207;-74
2022/04/10 05:55:08;;;;;;;15.30;4.07;;;;;;;;;;5023537;28;20269;-73
2022/04/10 05:57:37;;;;;;;7.70;3.83;;;;;;;;;;5014058;28;20228;-73
2022/04/10 06:00:08;;;;;;;14.47;4.03;;;;;;;;;;5015389;28;20221;-73
2022/04/10 06:02:37;;;;;;;11.97;3.53;;;;;;;;;;5024152;28;20224;-73
2022/04/10 06:05:06;;;;;;;9.60;4.10;;;;;;;;;;5032863;28;20204;-74
2022/04/10 06:07:34;;;;;;;8.70;3.73;;;;;;;;;;5030613;28;20246;-74
2022/04/10 06:10:03;;;;;;;8.60;3.37;;;;;;;;;;5014128;28;20204;-74
2022/04/10 06:12:32;;;;;;;8.03;3.33;;;;;;;;;;5028005;28;20606;-74
2022/04/10 06:15:00;;;;;;;10.23;3.37;;;;;;;;;;5024447;28;20212;-73
2022/04/10 06:17:31;;;;;;;12.93;3.60;;;;;;;;;;5025289;28;20619;-74
2022/04/10 06:19:59;;;;;;;9.40;3.13;;;;;;;;;;5028532;28;20613;-73
2022/04/10 06:22:28;;;;;;;11.20;3.87;;;;;;;;;;5027781;28;20230;-74
2022/04/10 06:24:56;;;;;;;7.13;3.30;;;;;;;;;;5022593;28;20217;-74
2022/04/10 06:27:25;;;;;;;9.53;3.50;;;;;;;;;;5027796;28;20275;-74
2022/04/10 06:29:53;;;;;;;7.30;3.40;;;;;;;;;;5027032;28;20253;-74
2022/04/10 06:32:22;;;;;;;5.03;2.47;;;;;;;;;;5030321;28;20197;-73
2022/04/10 06:34:51;;;;;;;8.60;2.83;;;;;;;;;;5024019;28;20235;-72
2022/04/10 06:37:20;;;;;;;7.87;2.63;;;;;;;;;;5029215;28;20744;-72
2022/04/10 06:39:48;;;;;;;8.57;2.80;;;;;;;;;;5022889;28;20210;-72
2022/04/10 06:42:17;;;;;;;9.37;3.33;;;;;;;;;;5027205;28;20586;-73
2022/04/10 06:44:45;;;;;;;9.53;3.20;;;;;;;;;;5026425;28;20260;-72
2022/04/10 06:47:14;;;;;;;14.00;3.53;;;;;;;;;;5022548;28;20232;-73
2022/04/10 06:49:42;;;;;;;9.80;3.37;;;;;;;;;;5020682;28;20205;-72
2022/04/10 06:52:12;;;;;;;6.33;2.80;;;;;;;;;;5019198;28;20197;-72
2022/04/10 06:54:40;;;;;;;10.23;3.03;;;;;;;;;;5032078;28;20215;-72
2022/04/10 06:57:09;;;;;;;8.83;2.70;;;;;;;;;;5027939;28;20215;-72
2022/04/10 06:59:37;;;;;;;7.27;2.87;;;;;;;;;;5027679;28;20258;-73
2022/04/10 07:02:06;;;;;;;7.63;3.03;;;;;;;;;;5015564;28;20207;-73
2022/04/10 07:04:34;;;;;;;10.93;3.10;;;;;;;;;;5030899;28;20238;-74
2022/04/10 07:07:03;;;;;;;6.60;2.53;;;;;;;;;;5028141;28;20228;-74
2022/04/10 07:09:32;;;;;;;6.17;2.83;;;;;;;;;;5031668;28;20655;-73
2022/04/10 07:12:01;;;;;;;9.10;3.00;;;;;;;;;;5029289;28;20664;-72
2022/04/10 07:14:29;;;;;;;10.70;3.20;;;;;;;;;;5028266;28;20239;-72
2022/04/10 07:16:57;;;;;;;7.83;2.87;;;;;;;;;;5028785;28;20285;-72
2022/04/10 07:19:26;;;;;;;8.83;2.53;;;;;;;;;;5033263;28;20290;-72
2022/04/10 07:24:43;;;;;;;6.70;2.83;;;;;;;;;;5030908;28;20234;-71
2022/04/10 07:27:11;;;;;;;6.83;2.80;;;;;;;;;;5033164;28;20262;-72
2022/04/10 07:29:39;;;;;;;6.90;2.40;;;;;;;;;;5042669;28;20196;-72
2022/04/10 07:32:08;;;;;;;6.67;2.87;;;;;;;;;;5033201;28;20654;-73
2022/04/10 07:34:37;;;;;;;7.20;2.80;;;;;;;;;;5023904;28;20251;-72
2022/04/10 07:37:06;;;;;;;5.23;2.87;;;;;;;;;;5026514;28;20832;-72
2022/04/10 07:39:34;;;;;;;6.83;3.20;;;;;;;;;;5029838;28;20235;-72
2022/04/10 07:42:04;;;;;;;7.47;2.70;;;;;;;;;;5020513;28;20204;-73
2022/04/10 07:44:54;;;;;;;6.93;2.50;;;;;;;;;;5022581;28;20301;-72
2022/04/10 07:47:25;;;;;;;6.27;2.50;;;;;;;;;;5032619;28;20311;-72
2022/04/10 07:49:54;;;;;;;4.50;2.83;;;;;;;;;;5030376;28;20259;-72
2022/04/10 07:52:23;;;;;;;5.37;2.73;;;;;;;;;;5019990;28;20242;-74
2022/04/10 07:54:52;;;;;;;7.43;2.53;;;;;;;;;;5027570;28;20277;-73
2022/04/10 07:57:22;;;;;;;3.97;1.87;;;;;;;;;;5029937;28;20558;-72
2022/04/10 07:59:51;;;;;;;8.30;2.67;;;;;;;;;;5027772;28;20208;-72
2022/04/10 08:02:19;;;;;;;7.67;2.00;;;;;;;;;;5028971;28;20694;-72
2022/04/10 08:04:48;;;;;;;3.97;2.00;;;;;;;;;;5026782;28;20248;-72
2022/04/10 08:07:17;;;;;;;4.87;2.47;;;;;;;;;;5022914;28;20232;-72
2022/04/10 08:09:45;;;;;;;3.77;2.07;;;;;;;;;;5031261;28;20215;-72
2022/04/10 08:12:13;;;;;;;5.43;2.10;;;;;;;;;;5018499;28;20200;-72
2022/04/10 08:14:43;;;;;;;4.40;1.83;;;;;;;;;;5019627;28;20263;-71
2022/04/10 08:17:12;;;;;;;3.70;1.83;;;;;;;;;;5025886;28;20227;-71
2022/04/10 08:19:40;;;;;;;4.73;2.23;;;;;;;;;;5029289;28;20215;-73
2022/04/10 08:22:09;;;;;;;7.20;2.50;;;;;;;;;;5028914;28;20192;-72
2022/04/10 08:24:37;;;;;;;4.40;1.60;;;;;;;;;;5031904;28;20227;-73
2022/04/10 08:27:05;;;;;;;4.27;1.87;;;;;;;;;;5029674;28;20219;-72
2022/04/10 08:29:34;;;;;;;5.63;1.93;;;;;;;;;;5023873;28;20253;-72
2022/04/10 08:32:04;;;;;;;4.77;2.17;;;;;;;;;;5025356;28;20246;-72
2022/04/10 08:34:32;;;;;;;5.73;2.00;;;;;;;;;;5024906;28;20200;-72
2022/04/10 08:37:04;;;;;;;5.30;2.00;;;;;;;;;;5032058;28;20230;-72
2022/04/10 08:39:33;;;;;;;6.13;2.00;;;;;;;;;;5020061;28;20215;-73
2022/04/10 08:42:02;;;;;;;5.20;2.33;;;;;;;;;;5021893;28;20262;-72
2022/04/10 08:44:36;;;;;;;4.67;2.10;;;;;;;;;;5033265;28;20216;-72
2022/04/10 08:47:06;;;;;;;5.80;2.20;;;;;;;;;;5030802;28;20219;-73
2022/04/10 08:49:35;;;;;;;5.90;2.00;;;;;;;;;;5026523;28;20266;-73
2022/04/10 08:52:04;;;;;;;5.37;1.90;;;;;;;;;;5026735;28;20208;-74
2022/04/10 08:54:35;;;;;;;5.63;2.10;;;;;;;;;;5019504;28;20216;-73
2022/04/10 08:57:04;;;;;;;4.23;2.00;;;;;;;;;;5023537;28;20216;-72
2022/04/10 08:59:32;;;;;;;4.77;1.93;;;;;;;;;;5024368;28;20662;-75
2022/04/10 09:02:01;;;;;;;5.80;2.17;;;;;;;;;;5031695;28;20285;-73
2022/04/10 09:04:31;;;;;;;4.77;2.90;;;;;;;;;;5029972;28;20223;-73
2022/04/10 09:07:00;;;;;;;5.63;2.30;;;;;;;;;;5023507;28;20584;-73
2022/04/10 09:09:28;;;;;;;9.20;2.37;;;;;;;;;;5028551;28;20210;-73
2022/04/10 09:11:57;;;;;;;4.87;2.00;;;;;;;;;;5020661;28;20648;-73
2022/04/10 09:14:26;;;;;;;6.73;2.33;;;;;;;;;;5023475;28;20192;-72
2022/04/10 09:17:09;;;;;;;8.07;2.10;;;;;;;;;;5023340;28;20228;-72
2022/04/10 09:19:39;;;;;;;8.17;2.00;;;;;;;;;;5023600;28;20215;-72
2022/04/10 09:22:20;;;;;;;5.80;1.77;;;;;;;;;;5025259;28;20203;-72
2022/04/10 09:25:01;;;;;;;4.57;1.93;;;;;;;;;;5025463;28;20266;-73
2022/04/10 09:27:31;;;;;;;6.43;2.00;;;;;;;;;;5022124;28;20555;-73
2022/04/10 09:30:00;;;;;;;7.17;2.03;;;;;;;;;;5027777;28;20279;-72
2022/04/10 09:32:38;;;;;;;7.80;2.10;;;;;;;;;;5026305;28;20211;-72
2022/04/10 09:35:09;;;;;;;7.40;1.73;;;;;;;;;;5022449;28;20254;-73
2022/04/10 09:37:44;;;;;;;4.70;1.63;;;;;;;;;;5028956;28;20694;-72
2022/04/10 09:40:37;;;;;;;5.67;2.07;;;;;;;;;;5019932;28;20260;-72
2022/04/10 09:43:06;;;;;;;4.03;1.73;;;;;;;;;;5017731;28;20628;-72
2022/04/10 09:45:35;;;;;;;6.57;1.83;;;;;;;;;;5025582;28;20958;-71
2022/04/10 09:48:20;;;;;;;4.17;2.00;;;;;;;;;;5023575;28;20224;-73
2022/04/10 09:50:52;;;;;;;5.83;1.97;;;;;;;;;;5025065;28;20227;-73
2022/04/10 09:53:21;;;;;;;5.53;1.93;;;;;;;;;;5042476;28;20246;-73
2022/04/10 09:55:54;;;;;;;6.47;2.00;;;;;;;;;;5028994;28;20247;-72
2022/04/10 09:58:24;;;;;;;6.80;2.00;;;;;;;;;;5017248;28;20234;-71
2022/04/10 10:00:54;;;;;;;4.40;2.10;;;;;;;;;;5026740;28;20258;-73
2022/04/10 10:03:24;;;;;;;4.23;2.00;;;;;;;;;;5026696;28;20195;-72
2022/04/10 10:05:54;;;;;;;6.70;2.37;;;;;;;;;;5035921;28;20222;-73
2022/04/10 10:08:24;;;;;;;5.87;2.43;;;;;;;;;;5032032;28;20227;-73
2022/04/10 10:10:52;;;;;;;6.13;2.30;;;;;;;;;;5029547;28;20201;-73
2022/04/10 10:13:26;;;;;;;2.30;1.10;;;;;;;;;;5025772;28;20192;-72
2022/04/10 10:15:56;;;;;;;0.67;0.60;;;;;;;;;;5030254;28;20689;-73
2022/04/10 10:18:28;;;;;;;2.53;1.40;;;;;;;;;;5018641;28;20237;-74
2022/04/10 10:20:59;;;;;;;3.67;1.20;;;;;;;;;;5027115;28;20211;-74
2022/04/10 10:23:28;;;;;;;4.53;1.80;;;;;;;;;;5017796;28;20211;-74
2022/04/10 10:26:04;;;;;;;2.00;1.07;;;;;;;;;;5022829;28;20225;-74
2022/04/10 10:28:47;;;;;;;2.20;1.20;;;;;;;;;;5022483;28;20225;-75
2022/04/10 10:31:22;;;;;;;3.10;1.30;;;;;;;;;;5033568;28;20200;-74
2022/04/10 10:33:53;;;;;;;1.93;1.13;;;;;;;;;;5026779;28;20207;-74
2022/04/10 10:36:26;;;;;;;2.70;1.20;;;;;;;;;;5029160;28;20548;-74
2022/04/10 10:38:55;;;;;;;1.87;1.20;;;;;;;;;;5022576;28;20210;-76
2022/04/10 10:41:33;;;;;;;5.03;1.70;;;;;;;;;;5026453;28;20211;-74
2022/04/10 10:44:18;;;;;;;2.93;1.60;;;;;;;;;;5035669;28;20208;-75
2022/04/10 10:46:57;;;;;;;3.03;1.53;;;;;;;;;;5016683;28;20311;-74
2022/04/10 10:49:27;;;;;;;3.47;1.93;;;;;;;;;;5029785;28;20294;-75
2022/04/10 10:52:09;;;;;;;4.27;2.03;;;;;;;;;;5024770;28;20196;-74
2022/04/10 10:54:44;;;;;;;4.03;2.00;;;;;;;;;;5033528;28;20212;-72
2022/04/10 10:57:32;;;;;;;8.13;3.70;;;;;;;;;;5034988;28;20636;-75
2022/04/10 11:00:09;;;;;;;3.93;1.80;;;;;;;;;;5030434;28;20235;-72
2022/04/10 11:02:40;;;;;;;5.90;1.60;;;;;;;;;;5025244;28;20655;-74
2022/04/10 11:05:29;;;;;;;7.20;2.50;;;;;;;;;;5020445;28;20703;-73
2022/04/10 11:08:00;;;;;;;4.97;2.87;;;;;;;;;;5037466;28;20216;-74
2022/04/10 11:10:30;;;;;;;3.03;1.70;;;;;;;;;;5023810;28;20211;-73
2022/04/10 11:13:01;;;;;;;3.83;1.70;;;;;;;;;;5024848;28;20212;-72
2022/04/10 11:15:31;;;;;;;4.70;2.67;;;;;;;;;;5032510;28;20696;-73
2022/04/10 11:18:20;;;;;;;6.30;3.13;;;;;;;;;;5024666;28;20646;-73
2022/04/10 11:20:55;;;;;;;6.40;3.27;;;;;;;;;;5028449;28;20204;-73
2022/04/10 11:23:31;;;;;;;11.50;4.03;;;;;;;;;;5031168;28;20684;-73
2022/04/10 11:26:05;;;;;;;4.43;2.63;;;;;;;;;;5030881;28;20212;-72
2022/04/10 11:28:54;;;;;;;4.80;2.50;;;;;;;;;;5020860;28;20226;-72
2022/04/10 11:31:31;;;;;;;4.07;1.90;;;;;;;;;;5029757;28;20655;-72
2022/04/10 11:34:09;;;;;;;3.00;1.50;;;;;;;;;;5032850;28;20727;-71
2022/04/10 11:36:54;;;;;;;4.10;1.57;;;;;;;;;;5032618;28;20694;-73
2022/04/10 11:39:25;;;;;;;4.57;1.90;;;;;;;;;;5020350;28;20235;-72
2022/04/10 11:41:57;;;;;;;3.97;1.90;;;;;;;;;;5015219;28;20288;-72
2022/04/10 11:44:26;;;;;;;3.90;1.40;;;;;;;;;;5018179;28;20207;-72
2022/04/10 11:46:54;;;;;;;5.10;1.73;;;;;;;;;;5026732;28;20306;-73
2022/04/10 11:49:23;;;;;;;5.20;2.47;;;;;;;;;;5021044;28;20200;-73
2022/04/10 11:51:54;;;;;;;4.87;1.73;;;;;;;;;;5026520;28;20679;-73
2022/04/10 11:54:33;;;;;;;5.60;1.87;;;;;;;;;;5029509;28;20237;-73
2022/04/10 11:57:02;;;;;;;3.90;1.90;;;;;;;;;;5033465;28;20227;-72
2022/04/10 11:59:37;;;;;;;3.97;1.50;;;;;;;;;;5033616;28;20212;-73
2022/04/10 12:02:06;;;;;;;2.77;1.50;;;;;;;;;;5030030;28;20203;-72
2022/04/10 12:04:36;;;;;;;4.73;1.30;;;;;;;;;;5017655;28;20207;-73
2022/04/10 12:07:12;;;;;;;4.67;1.57;;;;;;;;;;5021927;28;20224;-73
2022/04/10 12:09:42;;;;;;;5.00;1.53;;;;;;;;;;5020785;28;20230;-73
2022/04/10 12:12:11;;;;;;;2.80;1.50;;;;;;;;;;5028200;28;20662;-73
2022/04/10 12:14:40;;;;;;;4.17;1.83;;;;;;;;;;5029779;28;20199;-73
2022/04/10 12:17:12;;;;;;;3.97;1.50;;;;;;;;;;5030304;28;20247;-73
2022/04/10 12:19:40;;;;;;;4.40;1.50;;;;;;;;;;5029475;28;20204;-73
2022/04/10 12:22:10;;;;;;;4.17;1.40;;;;;;;;;;5022529;28;20278;-74
2022/04/10 12:24:44;;;;;;;4.87;1.30;;;;;;;;;;5027387;28;20196;-73
2022/04/10 12:27:14;;;;;;;3.00;1.40;;;;;;;;;;5025779;28;20223;-72
2022/04/10 12:29:43;;;;;;;2.70;1.10;;;;;;;;;;5032755;28;20208;-73
2022/04/10 12:32:11;;;;;;;3.53;1.30;;;;;;;;;;5033091;28;20200;-72
2022/04/10 12:34:42;;;;;;;3.23;1.30;;;;;;;;;;5019927;28;20287;-73
2022/04/10 12:37:11;;;;;;;3.53;1.43;;;;;;;;;;5032752;28;20663;-73
2022/04/10 12:39:39;;;;;;;3.27;1.30;;;;;;;;;;5032575;28;20206;-73
2022/04/10 12:42:09;;;;;;;2.47;1.10;;;;;;;;;;5031231;28;20668;-73
2022/04/10 12:44:38;;;;;;;4.13;1.50;;;;;;;;;;5032002;28;20667;-74
2022/04/10 12:47:07;;;;;;;5.10;1.77;;;;;;;;;;5023510;28;20223;-73
2022/04/10 12:49:38;;;;;;;3.20;1.30;;;;;;;;;;5029965;28;20208;-74
2022/04/10 12:52:09;;;;;;;3.33;1.50;;;;;;;;;;5030407;28;20766;-72
2022/04/10 12:54:39;;;;;;;3.13;1.50;;;;;;;;;;5028612;28;20216;-72
2022/04/10 12:57:10;;;;;;;4.00;1.40;;;;;;;;;;5030421;28;20232;-72
2022/04/10 12:59:43;;;;;;;3.93;1.43;;;;;;;;;;5025627;28;20207;-73
2022/04/10 13:02:22;;;;;;;3.20;1.50;;;;;;;;;;5022410;28;20679;-74
2022/04/10 13:04:54;;;;;;;4.07;1.37;;;;;;;;;;5028703;28;20721;-72
2022/04/10 13:07:23;;;;;;;2.93;1.30;;;;;;;;;;5024464;28;20595;-71
2022/04/10 13:09:52;;;;;;;3.03;1.37;;;;;;;;;;5026717;28;20245;-73
2022/04/10 13:12:26;;;;;;;3.40;1.13;;;;;;;;;;5030926;28;20195;-72
2022/04/10 13:14:54;;;;;;;4.20;1.70;;;;;;;;;;5030139;28;20199;-73
2022/04/10 13:17:23;;;;;;;5.60;1.60;;;;;;;;;;5018393;28;20274;-73
2022/04/10 13:19:51;;;;;;;4.23;1.53;;;;;;;;;;5023561;28;20211;-72
2022/04/10 13:22:20;;;;;;;4.83;1.67;;;;;;;;;;5032566;28;20204;-72
2022/04/10 13:24:48;;;;;;;4.60;1.80;;;;;;;;;;5019066;28;20213;-73
2022/04/10 13:27:17;;;;;;;2.67;1.40;;;;;;;;;;5013318;28;20232;-73
2022/04/10 13:29:47;;;;;;;2.23;1.30;;;;;;;;;;5029988;28;20206;-72
2022/04/10 13:32:17;;;;;;;3.20;1.80;;;;;;;;;;5015110;28;20208;-74
2022/04/10 13:34:45;;;;;;;3.37;1.40;;;;;;;;;;5024757;28;20208;-74
2022/04/10 13:37:14;;;;;;;2.47;1.37;;;;;;;;;;5042818;28;20221;-74
2022/04/10 13:39:42;;;;;;;4.53;1.80;;;;;;;;;;5025757;28;20295;-73
2022/04/10 13:42:11;;;;;;;5.03;2.00;;;;;;;;;;5030951;28;20208;-73
2022/04/10 13:44:39;;;;;;;4.77;1.73;;;;;;;;;;5022931;28;20204;-73
2022/04/10 13:47:09;;;;;;;2.43;1.47;;;;;;;;;;5028013;28;20228;-72
2022/04/10 13:49:37;;;;;;;4.80;1.50;;;;;;;;;;5028294;28;20254;-74
2022/04/10 13:52:06;;;;;;;4.23;1.80;;;;;;;;;;5030254;28;20258;-73
2022/04/10 13:54:37;;;;;;;5.43;1.80;;;;;;;;;;5023471;28;20212;-74
2022/04/10 13:57:05;;;;;;;4.13;1.60;;;;;;;;;;5022731;28;20219;-72
2022/04/10 13:59:33;;;;;;;6.10;1.80;;;;;;;;;;5028938;28;20208;-74
2022/04/10 14:02:04;;;;;;;6.03;1.60;;;;;;;;;;5027186;28;20207;-73
2022/04/10 14:04:34;;;;;;;3.37;1.50;;;;;;;;;;5023527;28;20199;-72
2022/04/10 14:07:02;;;;;;;3.07;1.30;;;;;;;;;;5023524;28;20224;-73
2022/04/10 14:09:31;;;;;;;3.20;1.50;;;;;;;;;;5025437;28;20204;-73
2022/04/10 14:12:02;;;;;;;4.30;1.30;;;;;;;;;;5028471;28;20204;-73
2022/04/10 14:14:31;;;;;;;3.93;1.20;;;;;;;;;;5025031;28;20201;-73
2022/04/10 14:17:00;;;;;;;5.50;1.40;;;;;;;;;;5026078;28;20265;-74
2022/04/10 14:19:29;;;;;;;3.23;1.30;;;;;;;;;;5020201;28;20210;-73
2022/04/10 14:21:59;;;;;;;4.60;1.30;;;;;;;;;;5021762;28;20200;-73
2022/04/10 14:24:30;;;;;;;2.50;1.07;;;;;;;;;;5023612;28;20261;-73
2022/04/10 14:26:59;;;;;;;2.57;0.93;;;;;;;;;;5032852;28;20235;-73
2022/04/10 14:29:27;;;;;;;4.17;1.20;;;;;;;;;;5030735;28;20330;-74
2022/04/10 14:31:56;;;;;;;4.47;1.27;;;;;;;;;;4682901;28;10000397;-73
2022/04/10 14:34:24;;;;;;;3.10;1.10;;;;;;;;;;5037178;28;20203;-74
2022/04/10 14:36:53;;;;;;;2.27;1.00;;;;;;;;;;5018717;28;20220;-73
2022/04/10 14:39:23;;;;;;;1.30;0.87;;;;;;;;;;5020671;28;20771;-73
2022/04/10 14:41:52;;;;;;;2.80;1.03;;;;;;;;;;5021514;28;20207;-73
2022/04/10 14:44:20;;;;;;;2.20;0.70;;;;;;;;;;5028151;28;20196;-73
2022/04/10 14:46:48;;;;;;;1.50;0.90;;;;;;;;;;5028529;28;20224;-74
2022/04/10 14:49:17;;;;;;;1.70;0.87;;;;;;;;;;5027671;28;20208;-75
2022/04/10 14:51:45;;;;;;;0.90;0.63;;;;;;;;;;5029924;28;20718;-74
2022/04/10 14:54:15;;;;;;;2.47;0.90;;;;;;;;;;5023178;28;20208;-73
2022/04/10 14:56:45;;;;;;;1.83;0.90;;;;;;;;;;5030956;28;20301;-74
2022/04/10 14:59:13;;;;;;;1.83;0.70;;;;;;;;;;5032093;28;20204;-72
2022/04/10 15:01:42;;;;;;;2.07;0.83;;;;;;;;;;5030927;28;20261;-75